Time;durP1;ratioP1;P1;durP2;ratioP2;P2;SDS_P1;SDS_P2;PMS_P1;PMS_P2;Temp;Humidity;BMP_temperature;BMP_pressure;BME280_temperature;BME280_humidity;BME280_pressure;Samples;Min_cycle;Max_cycle;Signal;HPM_P1;HPM_P2
2021/03/01 00:00:13;;;;;;;13.98;8.05;;;21.40;34.80;;;;;;5090697;28;20040;-74
2021/03/01 00:02:39;;;;;;;13.73;7.72;;;21.40;34.80;;;;;;5093334;28;20040;-74
2021/03/01 00:05:05;;;;;;;12.57;7.72;;;21.40;34.80;;;;;;5093163;28;20032;-74
2021/03/01 00:07:31;;;;;;;9.65;6.80;;;21.40;34.80;;;;;;5096630;28;20458;-74
2021/03/01 00:09:57;;;;;;;12.55;7.65;;;21.40;34.80;;;;;;5080677;28;20120;-74
2021/03/01 00:12:22;;;;;;;15.32;8.40;;;21.40;34.90;;;;;;5088976;28;20031;-74
2021/03/01 00:14:48;;;;;;;13.30;7.93;;;21.30;34.80;;;;;;5087057;28;20453;-74
2021/03/01 00:17:14;;;;;;;14.30;7.85;;;21.30;34.80;;;;;;5087605;28;20017;-74
2021/03/01 00:19:39;;;;;;;13.93;7.85;;;21.30;34.80;;;;;;5097576;28;20663;-74
2021/03/01 00:22:05;;;;;;;14.20;6.75;;;21.30;34.80;;;;;;5103726;28;20030;-74
2021/03/01 00:24:30;;;;;;;12.52;6.75;;;21.30;34.90;;;;;;5088907;28;20032;-74
2021/03/01 00:26:56;;;;;;;12.43;7.72;;;21.30;34.70;;;;;;5098493;28;20043;-74
2021/03/01 00:29:22;;;;;;;12.07;7.90;;;21.30;34.90;;;;;;5090508;28;20127;-74
2021/03/01 00:31:47;;;;;;;13.13;7.93;;;21.20;34.70;;;;;;5099289;28;20020;-74
2021/03/01 00:34:13;;;;;;;13.15;7.65;;;21.30;34.80;;;;;;5100396;28;20024;-73
2021/03/01 00:36:38;;;;;;;12.10;8.18;;;21.30;34.80;;;;;;5093107;28;20036;-75
2021/03/01 00:39:04;;;;;;;13.45;7.85;;;21.30;34.70;;;;;;5093884;28;20464;-74
2021/03/01 00:41:30;;;;;;;15.70;8.43;;;21.30;34.70;;;;;;5102872;28;20016;-74
2021/03/01 00:43:55;;;;;;;16.33;8.60;;;21.30;34.70;;;;;;5094697;28;20077;-74
2021/03/01 00:46:27;;;;;;;14.88;8.00;;;21.20;34.70;;;;;;5088682;28;20016;-74
2021/03/01 00:48:53;;;;;;;13.85;8.13;;;21.20;34.70;;;;;;5086453;28;20027;-75
2021/03/01 00:51:18;;;;;;;15.25;7.97;;;21.20;34.60;;;;;;5092017;28;20395;-75
2021/03/01 00:53:44;;;;;;;14.10;8.00;;;21.20;34.60;;;;;;5093191;28;20020;-74
2021/03/01 00:56:09;;;;;;;15.07;8.23;;;21.20;34.60;;;;;;5093810;28;20099;-75
2021/03/01 00:58:35;;;;;;;14.05;8.05;;;21.20;34.60;;;;;;5098137;28;20031;-74
2021/03/01 01:01:01;;;;;;;13.40;7.88;;;21.20;34.70;;;;;;5093215;28;20031;-74
2021/03/01 01:03:26;;;;;;;15.43;7.65;;;21.20;34.70;;;;;;5083622;28;20035;-74
2021/03/01 01:05:52;;;;;;;14.27;8.15;;;21.20;34.60;;;;;;5089366;28;20043;-74
2021/03/01 01:08:17;;;;;;;14.88;8.57;;;21.10;34.70;;;;;;5095108;28;20102;-74
2021/03/01 01:10:43;;;;;;;10.43;7.45;;;21.10;34.60;;;;;;5082745;28;20044;-74
2021/03/01 01:13:09;;;;;;;16.50;8.68;;;21.10;34.70;;;;;;5091851;28;20481;-74
2021/03/01 01:15:34;;;;;;;14.20;8.63;;;21.10;34.70;;;;;;5092983;28;20047;-74
2021/03/01 01:18:00;;;;;;;14.73;8.40;;;21.10;34.80;;;;;;5085210;28;20533;-74
2021/03/01 01:20:25;;;;;;;19.67;9.00;;;21.10;34.70;;;;;;5093831;28;20124;-75
2021/03/01 01:22:57;;;;;;;14.13;8.07;;;21.10;34.70;;;;;;5093599;28;20415;-73
2021/03/01 01:25:23;;;;;;;11.00;5.32;;;21.10;34.70;;;;;;5091557;28;20504;-73
2021/03/01 01:27:48;;;;;;;12.52;7.15;;;21.00;34.80;;;;;;5091243;28;20088;-72
2021/03/01 01:30:22;;;;;;;15.95;8.45;;;21.00;34.70;;;;;;5093281;28;20040;-73
2021/03/01 01:32:48;;;;;;;14.35;8.18;;;21.00;34.80;;;;;;5094597;28;20035;-73
2021/03/01 01:35:14;;;;;;;12.40;8.25;;;21.00;34.80;;;;;;5090563;28;20020;-73
2021/03/01 01:37:39;;;;;;;16.48;8.60;;;20.90;34.90;;;;;;5091810;28;20032;-73
2021/03/01 01:40:06;;;;;;;17.33;9.23;;;20.90;35.60;;;;;;5089479;28;20098;-73
2021/03/01 01:42:32;;;;;;;15.35;8.63;;;20.90;34.90;;;;;;5094688;28;20683;-73
2021/03/01 01:44:58;;;;;;;12.63;8.13;;;20.90;34.90;;;;;;5098120;28;20034;-73
2021/03/01 01:47:23;;;;;;;16.15;8.60;;;20.90;34.90;;;;;;5092208;28;20028;-73
2021/03/01 01:49:49;;;;;;;16.55;8.93;;;20.90;34.90;;;;;;5101478;28;20518;-73
2021/03/01 01:52:15;;;;;;;16.40;8.90;;;20.90;34.90;;;;;;5092351;28;20115;-74
2021/03/01 01:54:41;;;;;;;14.30;8.95;;;20.80;35.00;;;;;;5092210;28;20499;-74
2021/03/01 01:57:07;;;;;;;15.32;8.27;;;20.80;35.00;;;;;;5073322;28;20369;-74
2021/03/01 01:59:32;;;;;;;14.48;8.13;;;20.80;35.00;;;;;;5089537;28;20038;-74
2021/03/01 02:02:02;;;;;;;12.93;7.68;;;20.80;35.00;;;;;;5089081;28;20085;-74
2021/03/01 02:04:28;;;;;;;17.13;9.48;;;20.80;35.10;;;;;;5086084;28;20036;-74
2021/03/01 02:07:19;;;;;;;13.32;8.75;;;20.80;34.90;;;;;;5095144;28;20027;-74
2021/03/01 02:10:10;;;;;;;18.63;9.93;;;20.80;34.80;;;;;;5083227;28;20115;-74
2021/03/01 02:13:04;;;;;;;17.00;8.75;;;20.80;34.70;;;;;;5016036;28;20418;-74
2021/03/01 02:15:37;;;;;;;14.93;9.05;;;20.90;34.60;;;;;;5032630;28;20112;-74
2021/03/01 02:18:03;;;;;;;19.80;9.77;;;20.90;34.50;;;;;;5013730;28;20052;-74
2021/03/01 02:20:29;;;;;;;20.02;9.60;;;20.90;34.40;;;;;;5002802;28;20065;-74
2021/03/01 02:22:55;;;;;;;19.20;9.43;;;20.90;34.40;;;;;;5006980;28;20126;-73
2021/03/01 02:25:23;;;;;;;19.95;9.63;;;20.90;34.40;;;;;;4999368;28;20037;-73
2021/03/01 02:28:03;;;;;;;15.98;9.25;;;20.90;34.40;;;;;;5002186;28;20033;-73
2021/03/01 02:30:35;;;;;;;16.42;10.05;;;20.80;34.30;;;;;;4997948;28;20045;-72
2021/03/01 02:33:03;;;;;;;18.08;9.43;;;20.90;34.40;;;;;;4997330;28;20061;-72
2021/03/01 02:35:32;;;;;;;16.75;9.60;;;20.90;34.40;;;;;;5022605;28;20029;-73
2021/03/01 02:37:59;;;;;;;18.23;9.35;;;20.80;34.30;;;;;;5016969;28;20021;-72
2021/03/01 02:40:24;;;;;;;15.68;9.10;;;20.80;34.30;;;;;;5012398;28;20144;-73
2021/03/01 02:42:50;;;;;;;19.52;9.65;;;20.80;34.30;;;;;;5031815;28;20152;-74
2021/03/01 02:45:16;;;;;;;17.85;9.93;;;20.80;34.30;;;;;;5013434;28;20033;-72
2021/03/01 02:47:43;;;;;;;12.35;8.05;;;20.80;34.40;;;;;;5010844;28;20029;-73
2021/03/01 02:50:08;;;;;;;17.98;10.48;;;20.70;34.30;;;;;;5080596;28;20035;-73
2021/03/01 02:52:34;;;;;;;15.63;9.70;;;20.70;34.30;;;;;;5097377;28;20502;-72
2021/03/01 02:55:00;;;;;;;15.82;9.65;;;20.70;34.30;;;;;;5084529;28;20035;-73
2021/03/01 02:57:26;;;;;;;14.70;9.48;;;20.80;34.30;;;;;;5097187;28;20027;-72
2021/03/01 02:59:53;;;;;;;17.75;9.35;;;20.70;34.30;;;;;;5070547;28;20027;-72
2021/03/01 03:02:18;;;;;;;17.42;9.55;;;20.70;34.30;;;;;;5089498;28;20491;-72
2021/03/01 03:04:45;;;;;;;15.90;9.85;;;20.70;34.30;;;;;;5089418;28;20025;-72
2021/03/01 03:07:11;;;;;;;16.52;9.88;;;20.60;34.30;;;;;;5103145;28;20074;-73
2021/03/01 03:09:36;;;;;;;19.08;10.05;;;20.60;34.30;;;;;;5074124;28;20112;-73
2021/03/01 03:12:03;;;;;;;21.30;9.73;;;20.60;34.40;;;;;;5072285;28;20524;-74
2021/03/01 03:14:28;;;;;;;17.45;10.07;;;20.60;34.40;;;;;;5083591;28;20048;-73
2021/03/01 03:16:56;;;;;;;15.82;9.63;;;20.60;34.30;;;;;;5099358;28;20027;-73
2021/03/01 03:19:22;;;;;;;20.38;11.43;;;20.60;34.30;;;;;;5083085;28;20024;-73
2021/03/01 03:21:48;;;;;;;17.90;9.48;;;20.60;34.40;;;;;;5087853;28;20105;-73
2021/03/01 03:24:13;;;;;;;17.52;10.43;;;20.60;34.30;;;;;;5089485;28;20028;-74
2021/03/01 03:26:39;;;;;;;18.35;10.02;;;20.50;34.30;;;;;;5089017;28;20043;-74
2021/03/01 03:29:04;;;;;;;17.52;10.77;;;20.60;34.30;;;;;;5095730;28;20086;-74
2021/03/01 03:31:30;;;;;;;16.45;9.98;;;20.50;34.20;;;;;;5107606;28;20032;-74
2021/03/01 03:34:05;;;;;;;17.05;10.35;;;20.50;34.20;;;;;;5111105;28;20544;-73
2021/03/01 03:36:33;;;;;;;15.85;9.60;;;20.60;34.30;;;;;;5106167;28;20484;-73
2021/03/01 03:39:08;;;;;;;19.92;10.95;;;20.60;34.20;;;;;;5099095;28;20020;-73
2021/03/01 03:41:35;;;;;;;19.53;10.53;;;20.60;34.20;;;;;;5097819;28;20039;-73
2021/03/01 03:44:02;;;;;;;16.65;10.98;;;20.50;34.20;;;;;;5091992;28;20024;-73
2021/03/01 03:46:28;;;;;;;14.20;9.50;;;20.50;34.10;;;;;;5104350;28;20099;-73
2021/03/01 03:48:53;;;;;;;12.15;8.02;;;20.50;34.20;;;;;;5094422;28;20100;-73
2021/03/01 03:51:19;;;;;;;15.73;10.60;;;20.50;34.20;;;;;;5091143;28;20060;-73
2021/03/01 03:53:51;;;;;;;18.60;10.48;;;20.50;34.20;;;;;;5098681;28;20038;-73
2021/03/01 03:56:21;;;;;;;22.27;11.18;;;20.50;34.20;;;;;;5097322;28;20099;-74
2021/03/01 03:58:49;;;;;;;18.50;10.73;;;20.50;34.20;;;;;;5091602;28;20020;-73
2021/03/01 04:01:16;;;;;;;19.77;11.70;;;20.40;34.10;;;;;;5085784;28;20020;-73
2021/03/01 04:03:42;;;;;;;18.58;11.15;;;20.40;34.10;;;;;;5093423;28;20040;-73
2021/03/01 04:06:09;;;;;;;17.63;10.90;;;20.50;34.20;;;;;;5093411;28;20058;-73
2021/03/01 04:08:35;;;;;;;19.48;10.93;;;20.40;34.80;;;;;;5097092;28;20032;-73
2021/03/01 04:11:01;;;;;;;19.95;10.68;;;20.40;34.20;;;;;;5090166;28;20088;-73
2021/03/01 04:13:27;;;;;;;19.20;11.05;;;20.40;34.20;;;;;;5070482;28;20043;-73
2021/03/01 04:15:53;;;;;;;18.48;11.35;;;20.40;34.20;;;;;;5076783;28;20028;-73
2021/03/01 04:18:36;;;;;;;18.83;11.38;;;20.40;34.20;;;;;;5091892;28;20035;-73
2021/03/01 04:21:04;;;;;;;16.58;10.43;;;20.40;34.20;;;;;;5096393;28;20028;-72
2021/03/01 04:23:30;;;;;;;19.13;11.10;;;20.30;34.10;;;;;;5097456;28;20487;-73
2021/03/01 04:25:56;;;;;;;17.90;11.00;;;20.30;34.20;;;;;;5090067;28;20111;-73
2021/03/01 04:28:21;;;;;;;17.23;10.88;;;20.30;34.20;;;;;;5099260;28;20117;-72
2021/03/01 04:30:48;;;;;;;15.52;10.50;;;20.30;34.20;;;;;;5091076;28;20036;-73
2021/03/01 04:33:14;;;;;;;17.67;11.23;;;20.30;34.20;;;;;;5088950;28;20020;-73
2021/03/01 04:35:40;;;;;;;19.33;11.45;;;20.30;34.20;;;;;;5075147;28;20040;-73
2021/03/01 04:38:05;;;;;;;20.00;11.48;;;20.30;34.30;;;;;;5093560;28;20483;-74
2021/03/01 04:40:31;;;;;;;19.05;11.88;;;20.30;34.90;;;;;;5097097;28;20034;-74
2021/03/01 04:42:57;;;;;;;21.15;11.25;;;20.20;34.20;;;;;;5095389;28;20032;-74
2021/03/01 04:45:22;;;;;;;18.17;11.23;;;20.20;34.20;;;;;;5094684;28;20107;-73
2021/03/01 04:47:48;;;;;;;18.65;11.43;;;20.20;34.20;;;;;;5075440;28;20383;-73
2021/03/01 04:50:14;;;;;;;18.95;11.55;;;20.20;34.30;;;;;;5091493;28;20143;-73
2021/03/01 04:52:41;;;;;;;19.20;11.65;;;20.20;34.30;;;;;;5096206;28;20040;-72
2021/03/01 04:55:07;;;;;;;17.70;10.15;;;20.20;34.30;;;;;;5092392;28;20499;-73
2021/03/01 04:57:33;;;;;;;28.25;11.38;;;20.20;34.30;;;;;;5093494;28;20035;-73
2021/03/01 05:00:45;;;;;;;18.10;11.75;;;20.20;34.30;;;;;;5091571;28;20032;-73
2021/03/01 05:03:11;;;;;;;18.52;12.57;;;20.10;34.30;;;;;;5090733;28;20511;-74
2021/03/01 05:05:37;;;;;;;0.35;0.35;;;20.10;34.30;;;;;;5087404;28;20032;-74
2021/03/01 05:08:04;;;;;;;0.10;0.05;;;20.20;34.60;;;;;;5075615;28;20032;-74
2021/03/01 05:10:30;;;;;;;2.42;0.65;;;20.20;34.70;;;;;;5091702;28;20036;-74
2021/03/01 05:12:56;;;;;;;0.60;0.28;;;20.20;34.60;;;;;;5077156;28;20078;-74
2021/03/01 05:15:21;;;;;;;16.42;11.77;;;20.30;34.60;;;;;;5082583;28;20032;-74
2021/03/01 05:17:47;;;;;;;0.20;0.20;;;20.40;34.50;;;;;;5091084;28;20107;-74
2021/03/01 05:20:13;;;;;;;0.65;0.55;;;20.50;34.50;;;;;;5090894;28;20046;-73
2021/03/01 05:22:39;;;;;;;0.20;0.20;;;20.60;34.30;;;;;;5093231;28;20032;-73
2021/03/01 05:25:05;;;;;;;1.20;0.52;;;20.70;34.20;;;;;;5089392;28;20031;-73
2021/03/01 05:27:32;;;;;;;5.60;0.82;;;20.80;34.00;;;;;;5091176;28;20028;-74
2021/03/01 05:29:58;;;;;;;0.22;0.22;;;20.80;33.80;;;;;;5104553;27;20039;-74
2021/03/01 05:32:24;;;;;;;0.68;0.68;;;20.90;33.70;;;;;;5078400;28;20501;-74
2021/03/01 05:34:50;;;;;;;15.60;12.35;;;21.00;33.50;;;;;;5091069;28;20071;-74
2021/03/01 05:37:15;;;;;;;0.30;0.30;;;21.10;33.50;;;;;;5091695;28;20024;-74
2021/03/01 05:39:41;;;;;;;2.65;0.30;;;21.20;33.30;;;;;;5090475;28;20476;-74
2021/03/01 05:42:07;;;;;;;2.17;1.05;;;21.20;33.20;;;;;;5096534;28;20028;-74
2021/03/01 05:44:33;;;;;;;1.25;0.73;;;21.30;33.70;;;;;;5094202;28;20039;-74
2021/03/01 05:46:59;;;;;;;1.00;0.45;;;21.40;33.00;;;;;;5087304;28;20387;-74
2021/03/01 05:49:25;;;;;;;0.38;0.38;;;21.40;32.90;;;;;;5075748;28;20045;-74
2021/03/01 05:51:51;;;;;;;14.32;11.98;;;21.50;32.90;;;;;;5064913;28;20024;-74
2021/03/01 05:54:19;;;;;;;0.47;0.35;;;21.50;32.90;;;;;;5077089;28;20028;-74
2021/03/01 05:56:46;;;;;;;0.75;0.57;;;21.50;32.90;;;;;;5090330;28;20019;-74
2021/03/01 05:59:12;;;;;;;1.33;0.82;;;21.50;32.80;;;;;;5091612;28;20027;-74
2021/03/01 06:01:38;;;;;;;1.27;1.00;;;21.50;32.70;;;;;;5077545;28;20024;-74
2021/03/01 06:04:05;;;;;;;6.70;1.05;;;21.60;32.80;;;;;;5093338;28;20518;-74
2021/03/01 06:06:31;;;;;;;0.75;0.75;;;21.50;32.70;;;;;;5092177;28;20028;-74
2021/03/01 06:08:57;;;;;;;9.43;8.45;;;21.60;32.80;;;;;;5089258;28;20081;-73
2021/03/01 06:11:22;;;;;;;1.38;1.27;;;21.60;32.80;;;;;;5093875;28;20056;-74
2021/03/01 06:13:51;;;;;;;0.95;0.75;;;21.60;32.70;;;;;;5090722;28;20027;-74
2021/03/01 06:16:16;;;;;;;2.30;1.15;;;21.60;32.60;;;;;;5083660;28;20024;-74
2021/03/01 06:18:45;;;;;;;9.50;8.60;;;21.60;32.70;;;;;;5094145;28;20100;-74
2021/03/01 06:21:13;;;;;;;0.93;0.70;;;21.60;32.60;;;;;;5091206;28;20105;-74
2021/03/01 06:23:39;;;;;;;1.15;0.73;;;21.70;32.60;;;;;;5095489;28;20483;-73
2021/03/01 06:26:43;;;;;;;1.58;0.93;;;21.70;33.20;;;;;;5073150;28;20032;-74
2021/03/01 06:29:09;;;;;;;2.58;0.90;;;21.70;32.50;;;;;;5045667;28;20056;-74
2021/03/01 06:31:44;;;;;;;9.77;8.85;;;21.70;32.60;;;;;;5048902;28;20040;-74
2021/03/01 06:34:31;;;;;;;0.73;0.55;;;21.70;32.60;;;;;;5045755;28;20033;-73
2021/03/01 06:36:59;;;;;;;0.82;0.50;;;21.70;32.50;;;;;;5046344;28;20048;-72
2021/03/01 06:39:26;;;;;;;1.67;1.48;;;21.70;32.50;;;;;;5048136;28;20444;-74
2021/03/01 06:41:52;;;;;;;2.05;1.45;;;21.70;32.60;;;;;;5046736;28;20493;-74
2021/03/01 06:44:17;;;;;;;1.48;0.75;;;21.70;32.60;;;;;;5020461;28;20060;-74
2021/03/01 06:46:52;;;;;;;1.38;0.55;;;21.70;32.70;;;;;;5049869;28;20439;-74
2021/03/01 06:49:18;;;;;;;1.33;0.45;;;21.70;32.80;;;;;;5033173;28;20108;-74
2021/03/01 06:51:43;;;;;;;1.83;0.95;;;21.70;32.80;;;;;;5043075;28;20101;-74
2021/03/01 06:54:09;;;;;;;1.00;0.70;;;21.70;32.80;;;;;;5032168;28;20462;-74
2021/03/01 06:56:36;;;;;;;4.65;0.80;;;21.70;33.00;;;;;;5034096;28;20025;-74
2021/03/01 06:59:09;;;;;;;1.58;0.95;;;21.80;33.00;;;;;;5024314;28;20037;-74
2021/03/01 07:01:36;;;;;;;4.78;2.10;;;21.80;33.00;;;;;;5092917;28;20046;-74
2021/03/01 07:04:02;;;;;;;2.75;1.10;;;21.90;32.90;;;;;;5091504;28;20036;-74
2021/03/01 07:06:34;;;;;;;1.05;0.88;;;22.00;32.90;;;;;;5089816;28;20115;-74
2021/03/01 07:09:00;;;;;;;3.03;1.77;;;22.00;32.70;;;;;;5089476;28;20055;-75
2021/03/01 07:11:29;;;;;;;1.58;1.25;;;22.10;32.50;;;;;;5101678;28;20522;-75
2021/03/01 07:13:58;;;;;;;4.72;1.80;;;22.10;32.40;;;;;;5095542;28;20047;-75
2021/03/01 07:16:23;;;;;;;1.05;0.93;;;22.10;32.30;;;;;;5087875;28;20021;-75
2021/03/01 07:18:49;;;;;;;1.88;1.23;;;22.20;32.40;;;;;;5085067;28;20044;-75
2021/03/01 07:21:18;;;;;;;1.75;1.02;;;22.20;32.20;;;;;;5090987;28;20079;-75
2021/03/01 07:23:48;;;;;;;1.80;1.42;;;22.20;32.30;;;;;;5100235;28;20036;-75
2021/03/01 07:26:15;;;;;;;3.97;2.42;;;22.20;32.20;;;;;;5074203;28;20411;-75
2021/03/01 07:28:42;;;;;;;1.63;1.10;;;22.20;32.20;;;;;;5094484;28;20126;-75
2021/03/01 07:31:09;;;;;;;1.30;1.20;;;22.20;32.20;;;;;;5100553;28;20067;-75
2021/03/01 07:33:38;;;;;;;1.30;1.02;;;22.20;32.20;;;;;;5092167;28;20016;-76
2021/03/01 07:36:06;;;;;;;4.20;2.28;;;22.30;32.20;;;;;;5095527;28;20028;-75
2021/03/01 07:38:32;;;;;;;4.65;1.75;;;22.30;32.30;;;;;;5096444;28;20023;-75
2021/03/01 07:40:58;;;;;;;2.47;1.52;;;22.30;32.00;;;;;;5108057;27;20540;-74
2021/03/01 07:43:27;;;;;;;3.72;2.10;;;22.30;31.90;;;;;;5105894;28;20019;-74
2021/03/01 07:45:53;;;;;;;1.55;1.15;;;22.30;32.00;;;;;;5096029;28;20116;-75
2021/03/01 07:48:19;;;;;;;1.65;0.70;;;22.30;32.10;;;;;;5097666;28;20063;-75
2021/03/01 07:50:46;;;;;;;4.22;1.73;;;22.30;32.00;;;;;;5088923;28;20039;-76
2021/03/01 07:53:44;;;;;;;2.30;1.92;;;22.30;32.10;;;;;;5080048;28;20028;-76
2021/03/01 07:56:25;;;;;;;1.00;0.82;;;22.20;32.00;;;;;;5094688;28;20026;-76
2021/03/01 07:58:55;;;;;;;2.25;0.65;;;22.20;32.10;;;;;;5097992;28;20069;-77
2021/03/01 08:01:21;;;;;;;2.85;1.75;;;22.20;32.20;;;;;;5089678;28;20051;-77
2021/03/01 08:03:46;;;;;;;2.10;1.48;;;22.20;32.30;;;;;;5086286;28;20024;-77
2021/03/01 08:06:15;;;;;;;3.83;2.13;;;22.10;32.20;;;;;;5109095;28;20035;-77
2021/03/01 08:08:42;;;;;;;3.47;2.08;;;22.10;32.30;;;;;;5088458;28;20026;-76
2021/03/01 08:11:42;;;;;;;2.58;1.80;;;22.10;32.30;;;;;;5099410;28;20028;-76
2021/03/01 08:14:49;;;;;;;1.80;1.27;;;22.10;32.30;;;;;;5094074;28;20072;-78
2021/03/01 08:17:27;;;;;;;0.43;0.43;;;22.10;32.30;;;;;;5087984;28;20039;-77
2021/03/01 08:19:53;;;;;;;2.75;1.35;;;22.10;32.40;;;;;;5085905;28;20556;-76
2021/03/01 08:22:19;;;;;;;5.25;1.85;;;22.10;32.50;;;;;;5088352;28;20123;-77
2021/03/01 08:24:48;;;;;;;3.75;1.80;;;22.10;32.50;;;;;;5091841;28;20063;-76
2021/03/01 08:27:26;;;;;;;2.95;1.67;;;22.00;32.50;;;;;;5084689;28;20038;-77
2021/03/01 08:30:32;;;;;;;1.15;0.93;;;22.00;32.70;;;;;;5094824;28;20131;-75
2021/03/01 08:33:10;;;;;;;3.60;2.07;;;22.00;32.70;;;;;;5080764;28;20440;-73
2021/03/01 08:35:46;;;;;;;3.00;1.92;;;22.10;32.70;;;;;;5097387;28;20108;-72
2021/03/01 08:38:12;;;;;;;5.18;1.83;;;22.10;32.60;;;;;;5105229;28;20012;-74
2021/03/01 08:40:53;;;;;;;2.83;1.65;;;22.20;32.60;;;;;;5087586;28;20036;-75
2021/03/01 08:43:37;;;;;;;2.67;1.35;;;22.20;32.50;;;;;;5075569;28;20153;-73
2021/03/01 08:46:21;;;;;;;3.17;1.08;;;22.30;32.40;;;;;;5114325;27;20513;-76
2021/03/01 08:48:48;;;;;;;2.85;1.63;;;22.30;32.40;;;;;;5085571;28;20020;-76
2021/03/01 08:51:14;;;;;;;1.38;1.17;;;22.30;32.40;;;;;;5090400;28;20024;-76
2021/03/01 08:53:43;;;;;;;4.97;2.97;;;22.30;32.30;;;;;;5099948;28;20038;-76
2021/03/01 08:56:22;;;;;;;3.80;2.55;;;22.30;32.30;;;;;;5069441;28;20051;-75
2021/03/01 08:58:47;;;;;;;4.78;2.80;;;22.30;32.30;;;;;;5077291;28;20506;-75
2021/03/01 09:02:06;;;;;;;5.80;2.60;;;22.30;32.30;;;;;;5091663;28;20061;-76
2021/03/01 09:04:31;;;;;;;6.13;3.22;;;22.30;32.40;;;;;;5086214;28;20042;-75
2021/03/01 09:07:15;;;;;;;3.75;2.00;;;22.30;32.40;;;;;;5094084;28;20044;-76
2021/03/01 09:09:48;;;;;;;5.78;2.45;;;22.30;32.30;;;;;;5098939;28;20027;-76
2021/03/01 09:12:17;;;;;;;1.92;1.23;;;22.30;32.30;;;;;;5095088;28;20111;-75
2021/03/01 09:14:43;;;;;;;1.35;0.65;;;22.30;32.30;;;;;;5090431;28;20034;-76
2021/03/01 09:17:09;;;;;;;2.28;1.40;;;22.40;32.30;;;;;;5073954;28;20044;-75
2021/03/01 09:19:34;;;;;;;6.50;3.00;;;22.40;32.40;;;;;;5075662;28;20104;-74
2021/03/01 09:22:00;;;;;;;8.00;2.80;;;22.40;32.50;;;;;;5096760;28;20048;-75
2021/03/01 09:24:25;;;;;;;5.28;3.25;;;22.40;32.60;;;;;;5087007;28;20028;-74
2021/03/01 09:26:51;;;;;;;7.07;2.40;;;22.40;32.50;;;;;;5071577;28;20024;-75
2021/03/01 09:29:18;;;;;;;2.33;1.63;;;22.40;32.60;;;;;;5082925;28;20071;-75
2021/03/01 09:31:55;;;;;;;2.88;1.77;;;22.40;32.60;;;;;;5097969;28;20065;-75
2021/03/01 09:34:22;;;;;;;3.90;1.08;;;22.40;32.60;;;;;;5107688;28;20020;-75
2021/03/01 09:36:48;;;;;;;1.40;1.30;;;22.40;32.50;;;;;;5092428;28;20024;-75
2021/03/01 09:39:16;;;;;;;3.75;2.53;;;22.50;32.50;;;;;;5101934;28;20449;-75
2021/03/01 09:41:42;;;;;;;2.75;1.50;;;22.50;32.50;;;;;;5104499;28;20031;-75
2021/03/01 09:44:08;;;;;;;1.70;1.33;;;22.50;32.50;;;;;;5101473;28;20026;-75
2021/03/01 09:46:33;;;;;;;4.15;2.05;;;22.50;32.50;;;;;;5104998;28;20051;-74
2021/03/01 09:49:04;;;;;;;2.67;1.42;;;22.50;32.50;;;;;;5087515;28;20020;-75
2021/03/01 09:51:33;;;;;;;6.93;3.80;;;22.50;32.50;;;;;;5075103;28;20090;-75
2021/03/01 09:54:00;;;;;;;4.90;2.58;;;22.60;32.50;;;;;;5092118;28;20484;-74
2021/03/01 09:56:41;;;;;;;3.30;2.08;;;22.60;32.50;;;;;;5080578;28;20024;-75
2021/03/01 09:59:07;;;;;;;5.85;3.00;;;22.60;32.50;;;;;;5096053;28;20015;-74
2021/03/01 10:01:32;;;;;;;6.20;3.35;;;22.60;32.50;;;;;;5105991;28;20039;-73
2021/03/01 10:03:58;;;;;;;6.72;2.10;;;22.50;32.50;;;;;;5094589;28;20098;-74
2021/03/01 10:06:31;;;;;;;7.00;2.92;;;22.60;32.60;;;;;;5085745;28;20028;-75
2021/03/01 10:09:07;;;;;;;6.32;3.00;;;22.60;32.50;;;;;;5085735;28;20024;-74
2021/03/01 10:11:33;;;;;;;3.85;1.92;;;22.60;32.50;;;;;;5088249;28;20044;-74
2021/03/01 10:14:17;;;;;;;4.30;2.20;;;22.60;32.60;;;;;;5084187;28;20425;-74
2021/03/01 10:16:42;;;;;;;5.20;1.75;;;22.60;32.50;;;;;;5087319;28;20058;-74
2021/03/01 10:19:15;;;;;;;6.60;2.20;;;22.60;32.60;;;;;;5084787;28;20048;-74
2021/03/01 10:21:41;;;;;;;2.28;1.13;;;22.60;32.60;;;;;;5076304;28;20091;-73
2021/03/01 10:24:25;;;;;;;5.32;1.73;;;22.60;32.60;;;;;;5085933;28;20506;-74
2021/03/01 10:27:04;;;;;;;1.35;1.25;;;22.60;32.60;;;;;;5090130;28;20036;-75
2021/03/01 10:29:30;;;;;;;6.15;2.75;;;22.60;32.60;;;;;;5086740;28;20032;-74
2021/03/01 10:31:56;;;;;;;3.88;2.20;;;22.60;32.60;;;;;;5056825;28;20518;-74
2021/03/01 10:34:48;;;;;;;5.93;3.28;;;22.60;32.60;;;;;;5088610;28;20019;-74
2021/03/01 10:37:17;;;;;;;5.82;3.13;;;22.60;32.60;;;;;;5081797;28;20454;-73
2021/03/01 10:39:47;;;;;;;5.80;1.65;;;22.60;32.60;;;;;;5087330;28;20039;-75
2021/03/01 10:42:16;;;;;;;4.80;2.88;;;22.60;32.60;;;;;;5083691;28;20138;-75
2021/03/01 10:44:44;;;;;;;5.88;3.17;;;22.70;32.60;;;;;;5102084;28;20020;-75
2021/03/01 10:47:14;;;;;;;5.85;3.13;;;22.70;32.60;;;;;;5072886;28;20509;-75
2021/03/01 10:49:39;;;;;;;2.67;2.03;;;22.70;32.60;;;;;;5091832;28;20028;-75
2021/03/01 10:52:07;;;;;;;5.88;3.15;;;22.70;32.60;;;;;;5079303;28;20107;-74
2021/03/01 10:54:32;;;;;;;5.25;3.00;;;22.70;32.60;;;;;;5077531;28;20111;-75
2021/03/01 10:56:58;;;;;;;9.68;3.17;;;22.70;33.30;;;;;;5081970;28;20596;-75
2021/03/01 10:59:24;;;;;;;3.17;2.22;;;22.70;32.60;;;;;;5063642;28;20028;-75
2021/03/01 11:01:49;;;;;;;29.48;19.60;;;22.70;32.50;;;;;;5104572;28;20080;-77
2021/03/01 11:04:16;;;;;;;32.08;20.40;;;22.80;32.60;;;;;;5100774;28;20043;-76
2021/03/01 11:06:42;;;;;;;6.55;2.28;;;22.70;32.50;;;;;;5058358;28;20056;-76
2021/03/01 11:09:09;;;;;;;5.63;3.40;;;22.80;32.50;;;;;;5077480;28;20036;-75
2021/03/01 11:11:34;;;;;;;7.22;3.28;;;22.80;32.40;;;;;;5088507;28;20083;-74
2021/03/01 11:14:00;;;;;;;7.30;3.80;;;22.80;32.40;;;;;;5079181;28;20041;-75
2021/03/01 11:16:26;;;;;;;6.95;3.38;;;22.80;32.40;;;;;;5075038;28;20086;-75
2021/03/01 11:18:51;;;;;;;7.05;3.03;;;22.80;32.50;;;;;;5090716;28;20027;-76
2021/03/01 11:21:17;;;;;;;5.88;3.08;;;22.80;32.40;;;;;;5069429;28;20062;-75
2021/03/01 11:27:04;;;;;;;7.50;3.38;;;22.90;32.40;;;;;;5072420;28;20412;-75
2021/03/01 11:29:31;;;;;;;10.55;4.20;;;22.90;32.40;;;;;;5101905;28;20044;-75
2021/03/01 11:31:56;;;;;;;8.20;1.92;;;22.90;32.30;;;;;;5102023;28;20024;-75
2021/03/01 11:34:22;;;;;;;2.85;2.20;;;23.00;32.30;;;;;;5087979;28;20016;-75
2021/03/01 11:36:49;;;;;;;6.25;1.77;;;23.00;32.30;;;;;;5115686;28;20020;-75
2021/03/01 11:39:14;;;;;;;3.20;2.30;;;23.00;32.20;;;;;;5106179;28;20016;-75
2021/03/01 11:41:43;;;;;;;7.97;4.55;;;23.00;32.20;;;;;;5107774;28;20030;-75
2021/03/01 11:44:09;;;;;;;6.15;2.60;;;23.10;32.20;;;;;;5101268;28;20051;-75
2021/03/01 11:46:35;;;;;;;7.38;3.92;;;23.20;32.00;;;;;;5094264;28;20019;-76
2021/03/01 11:49:01;;;;;;;1.42;1.02;;;23.30;31.90;;;;;;5090645;28;20016;-76
2021/03/01 11:51:26;;;;;;;10.43;4.00;;;23.40;31.70;;;;;;5105547;28;20414;-75
2021/03/01 11:53:58;;;;;;;6.07;3.15;;;23.50;31.50;;;;;;5102950;28;20072;-75
2021/03/01 11:56:23;;;;;;;6.70;3.65;;;23.60;31.30;;;;;;5098681;28;20412;-76
2021/03/01 11:58:52;;;;;;;1.63;0.75;;;23.60;31.10;;;;;;5100221;28;20039;-75
2021/03/01 12:01:18;;;;;;;11.95;4.95;;;23.60;31.20;;;;;;5095053;28;20062;-75
2021/03/01 12:03:43;;;;;;;5.47;2.22;;;23.70;31.10;;;;;;5097890;28;20055;-75
2021/03/01 12:06:09;;;;;;;7.68;3.15;;;23.80;31.00;;;;;;5098382;28;20035;-75
2021/03/01 12:08:35;;;;;;;6.90;3.80;;;23.80;31.00;;;;;;5096821;28;20024;-75
2021/03/01 12:11:00;;;;;;;5.38;2.95;;;23.80;30.90;;;;;;5095664;28;20034;-75
2021/03/01 12:13:26;;;;;;;1.05;0.85;;;23.80;30.90;;;;;;5095124;28;20016;-76
2021/03/01 12:15:52;;;;;;;10.10;3.30;;;23.80;30.90;;;;;;5090632;28;20408;-75
2021/03/01 12:18:17;;;;;;;5.75;2.95;;;23.80;30.90;;;;;;5075248;28;20575;-76
2021/03/01 12:20:43;;;;;;;9.48;5.03;;;23.90;30.90;;;;;;5090967;28;20047;-76
2021/03/01 12:23:08;;;;;;;4.47;2.20;;;23.80;30.80;;;;;;5101013;27;20507;-76
2021/03/01 12:25:34;;;;;;;2.95;1.60;;;23.90;30.80;;;;;;5095570;28;20141;-76
2021/03/01 12:28:00;;;;;;;7.88;4.35;;;23.80;30.70;;;;;;5061529;28;20377;-76
2021/03/01 12:30:35;;;;;;;8.35;3.30;;;23.90;30.80;;;;;;5093986;28;20047;-76
2021/03/01 12:33:01;;;;;;;3.03;1.70;;;23.90;30.80;;;;;;5095499;28;20145;-76
2021/03/01 12:35:26;;;;;;;7.28;2.60;;;23.90;30.70;;;;;;5099125;28;20123;-76
2021/03/01 12:37:52;;;;;;;11.25;4.05;;;23.90;30.80;;;;;;5093649;28;20118;-76
2021/03/01 12:40:18;;;;;;;8.25;3.00;;;23.90;30.70;;;;;;5093110;28;20036;-76
2021/03/01 12:42:44;;;;;;;12.23;6.25;;;23.90;30.70;;;;;;5098260;28;20030;-76
2021/03/01 12:45:10;;;;;;;8.77;3.97;;;23.90;30.70;;;;;;5093929;28;20040;-76
2021/03/01 12:47:57;;;;;;;9.30;4.32;;;23.90;30.70;;;;;;5076081;28;20038;-76
2021/03/01 12:50:23;;;;;;;5.57;2.80;;;23.90;30.70;;;;;;5096893;28;20103;-76